sensor_id;sensor_type;location;lat;lon;timestamp;temperature;humidity
69546;SHT31;56766;52.260;20.746;2022-08-01T00:01:51;16.05;90.14
69546;SHT31;56766;52.260;20.746;2022-08-01T00:04:19;16.04;90.14
69546;SHT31;56766;52.260;20.746;2022-08-01T00:06:45;16.04;90.09
69546;SHT31;56766;52.260;20.746;2022-08-01T00:09:12;16.07;90.08
69546;SHT31;56766;52.260;20.746;2022-08-01T00:11:39;16.08;90.08
69546;SHT31;56766;52.260;20.746;2022-08-01T00:14:05;16.08;90.00
69546;SHT31;56766;52.260;20.746;2022-08-01T00:16:32;16.06;89.90
69546;SHT31;56766;52.260;20.746;2022-08-01T00:18:59;16.06;89.94
69546;SHT31;56766;52.260;20.746;2022-08-01T00:21:25;16.06;89.99
69546;SHT31;56766;52.260;20.746;2022-08-01T00:23:52;16.06;89.92
69546;SHT31;56766;52.260;20.746;2022-08-01T00:26:19;16.05;89.89
69546;SHT31;56766;52.260;20.746;2022-08-01T00:28:45;16.06;89.93
69546;SHT31;56766;52.260;20.746;2022-08-01T00:31:12;16.09;89.89
69546;SHT31;56766;52.260;20.746;2022-08-01T00:33:39;16.09;89.80
69546;SHT31;56766;52.260;20.746;2022-08-01T00:36:06;16.06;89.69
69546;SHT31;56766;52.260;20.746;2022-08-01T00:38:33;16.04;89.65
69546;SHT31;56766;52.260;20.746;2022-08-01T00:40:59;16.01;89.63
69546;SHT31;56766;52.260;20.746;2022-08-01T00:43:26;16.01;89.63
69546;SHT31;56766;52.260;20.746;2022-08-01T00:45:53;15.95;89.38
69546;SHT31;56766;52.260;20.746;2022-08-01T00:48:20;15.95;89.66
69546;SHT31;56766;52.260;20.746;2022-08-01T00:50:46;15.93;89.42
69546;SHT31;56766;52.260;20.746;2022-08-01T00:53:13;15.85;89.48
69546;SHT31;56766;52.260;20.746;2022-08-01T00:55:40;15.79;89.48
69546;SHT31;56766;52.260;20.746;2022-08-01T00:58:07;15.73;89.54
69546;SHT31;56766;52.260;20.746;2022-08-01T01:00:35;15.67;89.63
69546;SHT31;56766;52.260;20.746;2022-08-01T01:03:03;15.60;89.57
69546;SHT31;56766;52.260;20.746;2022-08-01T01:05:40;15.55;89.61
69546;SHT31;56766;52.260;20.746;2022-08-01T01:08:44;15.49;89.62
69546;SHT31;56766;52.260;20.746;2022-08-01T01:11:31;15.43;89.60
69546;SHT31;56766;52.260;20.746;2022-08-01T01:17:23;15.34;89.57
69546;SHT31;56766;52.260;20.746;2022-08-01T01:19:57;15.29;89.64
69546;SHT31;56766;52.260;20.746;2022-08-01T01:25:39;15.16;89.65
69546;SHT31;56766;52.260;20.746;2022-08-01T01:31:28;15.00;89.71
69546;SHT31;56766;52.260;20.746;2022-08-01T01:33:59;14.93;89.77
69546;SHT31;56766;52.260;20.746;2022-08-01T01:36:32;14.91;89.91
69546;SHT31;56766;52.260;20.746;2022-08-01T01:39:00;14.90;89.89
69546;SHT31;56766;52.260;20.746;2022-08-01T01:41:30;14.89;89.85
69546;SHT31;56766;52.260;20.746;2022-08-01T01:44:01;14.87;89.82
69546;SHT31;56766;52.260;20.746;2022-08-01T01:46:32;14.81;89.76
69546;SHT31;56766;52.260;20.746;2022-08-01T01:49:01;14.78;89.86
69546;SHT31;56766;52.260;20.746;2022-08-01T01:51:30;14.76;89.93
69546;SHT31;56766;52.260;20.746;2022-08-01T01:54:01;14.74;89.89
69546;SHT31;56766;52.260;20.746;2022-08-01T01:56:30;14.69;89.79
69546;SHT31;56766;52.260;20.746;2022-08-01T01:59:02;14.63;89.72
69546;SHT31;56766;52.260;20.746;2022-08-01T02:01:33;14.59;89.82
69546;SHT31;56766;52.260;20.746;2022-08-01T02:04:03;14.57;89.68
69546;SHT31;56766;52.260;20.746;2022-08-01T02:06:33;14.52;89.72
69546;SHT31;56766;52.260;20.746;2022-08-01T02:09:01;14.49;89.74
69546;SHT31;56766;52.260;20.746;2022-08-01T02:11:31;14.46;89.89
69546;SHT31;56766;52.260;20.746;2022-08-01T02:14:03;14.44;89.82
69546;SHT31;56766;52.260;20.746;2022-08-01T02:16:40;14.39;89.78
69546;SHT31;56766;52.260;20.746;2022-08-01T02:19:11;14.31;89.82
69546;SHT31;56766;52.260;20.746;2022-08-01T02:21:50;14.27;90.04
69546;SHT31;56766;52.260;20.746;2022-08-01T02:24:45;14.25;90.02
69546;SHT31;56766;52.260;20.746;2022-08-01T02:27:23;14.19;89.92
69546;SHT31;56766;52.260;20.746;2022-08-01T02:30:04;14.15;90.10
69546;SHT31;56766;52.260;20.746;2022-08-01T02:32:37;14.14;90.19
69546;SHT31;56766;52.260;20.746;2022-08-01T02:35:18;14.14;89.99
69546;SHT31;56766;52.260;20.746;2022-08-01T02:37:52;14.12;89.92
69546;SHT31;56766;52.260;20.746;2022-08-01T02:40:21;14.13;89.92
69546;SHT31;56766;52.260;20.746;2022-08-01T02:42:52;14.11;89.80
69546;SHT31;56766;52.260;20.746;2022-08-01T02:45:25;14.09;89.71
69546;SHT31;56766;52.260;20.746;2022-08-01T02:48:08;14.02;89.58
69546;SHT31;56766;52.260;20.746;2022-08-01T02:50:45;13.99;89.73
69546;SHT31;56766;52.260;20.746;2022-08-01T02:53:18;13.95;89.78
69546;SHT31;56766;52.260;20.746;2022-08-01T02:55:49;13.86;89.75
69546;SHT31;56766;52.260;20.746;2022-08-01T02:58:21;13.77;89.97
69546;SHT31;56766;52.260;20.746;2022-08-01T03:00:51;13.73;90.06
69546;SHT31;56766;52.260;20.746;2022-08-01T03:03:21;13.69;90.29
69546;SHT31;56766;52.260;20.746;2022-08-01T03:05:52;13.70;90.35
69546;SHT31;56766;52.260;20.746;2022-08-01T03:08:22;13.73;90.28
69546;SHT31;56766;52.260;20.746;2022-08-01T03:10:54;13.74;90.22
69546;SHT31;56766;52.260;20.746;2022-08-01T03:13:25;13.76;90.28
69546;SHT31;56766;52.260;20.746;2022-08-01T03:15:56;13.81;90.31
69546;SHT31;56766;52.260;20.746;2022-08-01T03:18:26;13.88;90.31
69546;SHT31;56766;52.260;20.746;2022-08-01T03:20:56;13.92;90.30
69546;SHT31;56766;52.260;20.746;2022-08-01T03:23:28;13.97;90.32
69546;SHT31;56766;52.260;20.746;2022-08-01T03:26:00;14.01;90.40
69546;SHT31;56766;52.260;20.746;2022-08-01T03:28:29;14.05;90.44
69546;SHT31;56766;52.260;20.746;2022-08-01T03:30:59;14.12;90.51
69546;SHT31;56766;52.260;20.746;2022-08-01T03:33:29;14.20;90.47
69546;SHT31;56766;52.260;20.746;2022-08-01T03:36:00;14.32;90.42
69546;SHT31;56766;52.260;20.746;2022-08-01T03:38:33;14.44;90.32
69546;SHT31;56766;52.260;20.746;2022-08-01T03:41:14;14.50;90.14
69546;SHT31;56766;52.260;20.746;2022-08-01T03:43:56;14.56;90.07
69546;SHT31;56766;52.260;20.746;2022-08-01T03:46:33;14.61;90.04
69546;SHT31;56766;52.260;20.746;2022-08-01T03:49:22;14.67;89.97
69546;SHT31;56766;52.260;20.746;2022-08-01T03:52:13;14.69;89.99
69546;SHT31;56766;52.260;20.746;2022-08-01T03:54:46;14.70;89.96
69546;SHT31;56766;52.260;20.746;2022-08-01T03:57:17;14.73;90.03
69546;SHT31;56766;52.260;20.746;2022-08-01T03:59:46;14.78;90.04
69546;SHT31;56766;52.260;20.746;2022-08-01T04:02:17;14.85;89.98
69546;SHT31;56766;52.260;20.746;2022-08-01T04:04:45;14.85;89.87
69546;SHT31;56766;52.260;20.746;2022-08-01T04:07:28;14.84;89.81
69546;SHT31;56766;52.260;20.746;2022-08-01T04:09:56;14.83;89.87
69546;SHT31;56766;52.260;20.746;2022-08-01T04:12:23;14.82;89.89
69546;SHT31;56766;52.260;20.746;2022-08-01T04:14:50;14.81;89.91
69546;SHT31;56766;52.260;20.746;2022-08-01T04:17:17;14.82;89.93
69546;SHT31;56766;52.260;20.746;2022-08-01T04:19:44;14.83;89.92
69546;SHT31;56766;52.260;20.746;2022-08-01T04:22:14;14.83;89.90
69546;SHT31;56766;52.260;20.746;2022-08-01T04:24:49;14.85;89.91
69546;SHT31;56766;52.260;20.746;2022-08-01T04:27:30;14.87;89.84
69546;SHT31;56766;52.260;20.746;2022-08-01T04:30:02;14.89;89.73
69546;SHT31;56766;52.260;20.746;2022-08-01T04:32:34;14.88;89.63
69546;SHT31;56766;52.260;20.746;2022-08-01T04:35:14;14.88;89.66
69546;SHT31;56766;52.260;20.746;2022-08-01T04:37:47;14.87;89.69
69546;SHT31;56766;52.260;20.746;2022-08-01T04:40:17;14.85;89.73
69546;SHT31;56766;52.260;20.746;2022-08-01T04:42:49;14.88;89.77
69546;SHT31;56766;52.260;20.746;2022-08-01T04:45:19;14.91;89.73
69546;SHT31;56766;52.260;20.746;2022-08-01T04:47:51;14.93;89.66
69546;SHT31;56766;52.260;20.746;2022-08-01T04:50:23;14.91;89.67
69546;SHT31;56766;52.260;20.746;2022-08-01T04:52:50;14.93;89.65
69546;SHT31;56766;52.260;20.746;2022-08-01T04:55:17;14.89;89.48
69546;SHT31;56766;52.260;20.746;2022-08-01T04:57:46;14.88;89.61
69546;SHT31;56766;52.260;20.746;2022-08-01T05:00:14;14.98;89.65
69546;SHT31;56766;52.260;20.746;2022-08-01T05:02:46;15.12;89.52
69546;SHT31;56766;52.260;20.746;2022-08-01T05:05:13;15.34;89.42
69546;SHT31;56766;52.260;20.746;2022-08-01T05:07:44;15.53;89.39
69546;SHT31;56766;52.260;20.746;2022-08-01T05:10:11;15.82;89.37
69546;SHT31;56766;52.260;20.746;2022-08-01T05:12:38;16.12;89.10
69546;SHT31;56766;52.260;20.746;2022-08-01T05:15:05;16.32;88.60
69546;SHT31;56766;52.260;20.746;2022-08-01T05:17:33;16.62;88.02
69546;SHT31;56766;52.260;20.746;2022-08-01T05:20:00;16.91;87.26
69546;SHT31;56766;52.260;20.746;2022-08-01T05:22:26;17.19;87.22
69546;SHT31;56766;52.260;20.746;2022-08-01T05:24:53;17.42;86.59
69546;SHT31;56766;52.260;20.746;2022-08-01T05:27:20;17.56;86.37
69546;SHT31;56766;52.260;20.746;2022-08-01T05:29:47;17.71;86.22
69546;SHT31;56766;52.260;20.746;2022-08-01T05:32:13;17.80;86.16
69546;SHT31;56766;52.260;20.746;2022-08-01T05:34:40;17.80;85.60
69546;SHT31;56766;52.260;20.746;2022-08-01T05:37:07;17.87;84.97
69546;SHT31;56766;52.260;20.746;2022-08-01T05:39:33;17.92;84.58
69546;SHT31;56766;52.260;20.746;2022-08-01T05:42:00;17.98;84.37
69546;SHT31;56766;52.260;20.746;2022-08-01T05:44:27;18.11;84.32
69546;SHT31;56766;52.260;20.746;2022-08-01T05:46:54;18.20;84.34
69546;SHT31;56766;52.260;20.746;2022-08-01T05:49:21;18.26;83.77
69546;SHT31;56766;52.260;20.746;2022-08-01T05:51:47;18.33;84.03
69546;SHT31;56766;52.260;20.746;2022-08-01T05:54:14;18.41;83.70
69546;SHT31;56766;52.260;20.746;2022-08-01T05:56:41;18.47;83.56
69546;SHT31;56766;52.260;20.746;2022-08-01T05:59:08;18.56;83.69
69546;SHT31;56766;52.260;20.746;2022-08-01T06:01:34;18.58;82.93
69546;SHT31;56766;52.260;20.746;2022-08-01T06:04:01;18.52;82.25
69546;SHT31;56766;52.260;20.746;2022-08-01T06:06:28;18.59;83.17
69546;SHT31;56766;52.260;20.746;2022-08-01T06:08:55;18.69;82.64
69546;SHT31;56766;52.260;20.746;2022-08-01T06:11:22;18.73;81.81
69546;SHT31;56766;52.260;20.746;2022-08-01T06:13:48;18.75;82.15
69546;SHT31;56766;52.260;20.746;2022-08-01T06:16:16;18.82;82.36
69546;SHT31;56766;52.260;20.746;2022-08-01T06:18:43;18.82;81.78
69546;SHT31;56766;52.260;20.746;2022-08-01T06:21:09;18.85;82.16
69546;SHT31;56766;52.260;20.746;2022-08-01T06:23:36;18.91;81.95
69546;SHT31;56766;52.260;20.746;2022-08-01T06:26:04;18.89;81.13
69546;SHT31;56766;52.260;20.746;2022-08-01T06:28:30;18.91;81.74
69546;SHT31;56766;52.260;20.746;2022-08-01T06:30:57;18.97;81.52
69546;SHT31;56766;52.260;20.746;2022-08-01T06:33:26;18.97;81.06
69546;SHT31;56766;52.260;20.746;2022-08-01T06:35:54;18.97;81.86
69546;SHT31;56766;52.260;20.746;2022-08-01T06:38:21;19.02;82.39
69546;SHT31;56766;52.260;20.746;2022-08-01T06:40:48;19.13;82.47
69546;SHT31;56766;52.260;20.746;2022-08-01T06:43:15;19.20;81.67
69546;SHT31;56766;52.260;20.746;2022-08-01T06:45:42;19.22;81.32
69546;SHT31;56766;52.260;20.746;2022-08-01T06:48:09;19.26;81.49
69546;SHT31;56766;52.260;20.746;2022-08-01T06:50:36;19.28;81.96
69546;SHT31;56766;52.260;20.746;2022-08-01T06:53:02;19.33;81.56
69546;SHT31;56766;52.260;20.746;2022-08-01T06:55:29;19.37;81.53
69546;SHT31;56766;52.260;20.746;2022-08-01T06:57:56;19.42;81.20
69546;SHT31;56766;52.260;20.746;2022-08-01T07:00:25;19.45;80.80
69546;SHT31;56766;52.260;20.746;2022-08-01T07:02:55;19.49;81.31
69546;SHT31;56766;52.260;20.746;2022-08-01T07:05:25;19.50;81.86
69546;SHT31;56766;52.260;20.746;2022-08-01T07:07:52;19.56;82.20
69546;SHT31;56766;52.260;20.746;2022-08-01T07:10:19;19.61;82.33
69546;SHT31;56766;52.260;20.746;2022-08-01T07:12:46;19.63;82.26
69546;SHT31;56766;52.260;20.746;2022-08-01T07:15:12;19.68;81.02
69546;SHT31;56766;52.260;20.746;2022-08-01T07:17:40;19.77;80.49
69546;SHT31;56766;52.260;20.746;2022-08-01T07:20:10;19.81;79.19
69546;SHT31;56766;52.260;20.746;2022-08-01T07:22:39;19.83;78.93
69546;SHT31;56766;52.260;20.746;2022-08-01T07:25:07;19.86;78.88
69546;SHT31;56766;52.260;20.746;2022-08-01T07:27:35;19.93;80.36
69546;SHT31;56766;52.260;20.746;2022-08-01T07:30:05;20.01;80.51
69546;SHT31;56766;52.260;20.746;2022-08-01T07:32:32;20.08;79.36
69546;SHT31;56766;52.260;20.746;2022-08-01T07:35:03;20.15;79.56
69546;SHT31;56766;52.260;20.746;2022-08-01T07:37:30;20.22;78.97
69546;SHT31;56766;52.260;20.746;2022-08-01T07:39:57;20.35;78.23
69546;SHT31;56766;52.260;20.746;2022-08-01T07:42:23;20.48;77.71
69546;SHT31;56766;52.260;20.746;2022-08-01T07:44:50;20.57;78.16
69546;SHT31;56766;52.260;20.746;2022-08-01T07:47:23;20.70;77.06
69546;SHT31;56766;52.260;20.746;2022-08-01T07:49:58;20.82;78.31
69546;SHT31;56766;52.260;20.746;2022-08-01T07:52:25;20.99;78.72
69546;SHT31;56766;52.260;20.746;2022-08-01T07:54:55;21.11;77.96
69546;SHT31;56766;52.260;20.746;2022-08-01T07:57:23;21.17;77.64
69546;SHT31;56766;52.260;20.746;2022-08-01T07:59:51;21.35;77.70
69546;SHT31;56766;52.260;20.746;2022-08-01T08:02:18;21.55;75.92
69546;SHT31;56766;52.260;20.746;2022-08-01T08:04:44;21.75;76.83
69546;SHT31;56766;52.260;20.746;2022-08-01T08:07:11;21.62;75.03
69546;SHT31;56766;52.260;20.746;2022-08-01T08:09:38;21.42;72.66
69546;SHT31;56766;52.260;20.746;2022-08-01T08:12:05;21.42;72.97
69546;SHT31;56766;52.260;20.746;2022-08-01T08:14:32;21.62;73.62
69546;SHT31;56766;52.260;20.746;2022-08-01T08:17:00;21.84;73.56
69546;SHT31;56766;52.260;20.746;2022-08-01T08:19:26;21.97;73.23
69546;SHT31;56766;52.260;20.746;2022-08-01T08:21:53;22.04;74.34
69546;SHT31;56766;52.260;20.746;2022-08-01T08:24:20;22.12;74.54
69546;SHT31;56766;52.260;20.746;2022-08-01T08:26:49;22.18;72.48
69546;SHT31;56766;52.260;20.746;2022-08-01T08:29:22;22.26;71.92
69546;SHT31;56766;52.260;20.746;2022-08-01T08:31:53;22.42;72.97
69546;SHT31;56766;52.260;20.746;2022-08-01T08:34:22;22.57;73.55
69546;SHT31;56766;52.260;20.746;2022-08-01T08:36:49;22.50;71.91
69546;SHT31;56766;52.260;20.746;2022-08-01T08:39:18;22.51;71.87
69546;SHT31;56766;52.260;20.746;2022-08-01T08:41:45;22.57;71.92
69546;SHT31;56766;52.260;20.746;2022-08-01T08:44:12;22.61;71.63
69546;SHT31;56766;52.260;20.746;2022-08-01T08:46:45;22.65;72.35
69546;SHT31;56766;52.260;20.746;2022-08-01T08:49:23;22.74;71.22
69546;SHT31;56766;52.260;20.746;2022-08-01T08:51:53;22.81;70.87
69546;SHT31;56766;52.260;20.746;2022-08-01T08:54:24;22.86;69.28
69546;SHT31;56766;52.260;20.746;2022-08-01T08:56:53;22.86;67.45
69546;SHT31;56766;52.260;20.746;2022-08-01T08:59:21;22.80;68.02
69546;SHT31;56766;52.260;20.746;2022-08-01T09:01:51;22.85;69.10
69546;SHT31;56766;52.260;20.746;2022-08-01T09:04:20;22.93;67.94
69546;SHT31;56766;52.260;20.746;2022-08-01T09:06:52;22.96;67.03
69546;SHT31;56766;52.260;20.746;2022-08-01T09:09:21;23.05;69.31
69546;SHT31;56766;52.260;20.746;2022-08-01T09:11:49;23.20;69.28
69546;SHT31;56766;52.260;20.746;2022-08-01T09:14:18;23.19;66.71
69546;SHT31;56766;52.260;20.746;2022-08-01T09:17:03;23.21;67.45
69546;SHT31;56766;52.260;20.746;2022-08-01T09:19:53;23.29;66.58
69546;SHT31;56766;52.260;20.746;2022-08-01T09:22:25;23.38;66.22
69546;SHT31;56766;52.260;20.746;2022-08-01T09:25:05;23.49;68.40
69546;SHT31;56766;52.260;20.746;2022-08-01T09:27:36;23.61;67.29
69546;SHT31;56766;52.260;20.746;2022-08-01T09:30:10;23.67;66.29
69546;SHT31;56766;52.260;20.746;2022-08-01T09:33:00;23.70;66.30
69546;SHT31;56766;52.260;20.746;2022-08-01T09:35:35;23.73;66.06
69546;SHT31;56766;52.260;20.746;2022-08-01T09:43:20;24.19;66.28
69546;SHT31;56766;52.260;20.746;2022-08-01T09:45:49;24.26;64.21
69546;SHT31;56766;52.260;20.746;2022-08-01T09:48:19;24.28;64.96
69546;SHT31;56766;52.260;20.746;2022-08-01T09:50:54;24.39;64.63
69546;SHT31;56766;52.260;20.746;2022-08-01T09:53:21;24.53;64.80
69546;SHT31;56766;52.260;20.746;2022-08-01T09:55:48;24.62;63.24
69546;SHT31;56766;52.260;20.746;2022-08-01T09:58:19;24.68;64.21
69546;SHT31;56766;52.260;20.746;2022-08-01T10:00:59;24.76;62.42
69546;SHT31;56766;52.260;20.746;2022-08-01T10:03:27;24.77;60.96
69546;SHT31;56766;52.260;20.746;2022-08-01T10:05:55;24.73;61.69
69546;SHT31;56766;52.260;20.746;2022-08-01T10:08:25;24.77;61.98
69546;SHT31;56766;52.260;20.746;2022-08-01T10:11:11;24.82;59.70
69546;SHT31;56766;52.260;20.746;2022-08-01T10:13:39;24.91;60.86
69546;SHT31;56766;52.260;20.746;2022-08-01T10:16:08;25.03;60.50
69546;SHT31;56766;52.260;20.746;2022-08-01T10:18:41;25.03;60.36
69546;SHT31;56766;52.260;20.746;2022-08-01T10:21:10;25.10;62.31
69546;SHT31;56766;52.260;20.746;2022-08-01T10:23:38;25.26;61.63
69546;SHT31;56766;52.260;20.746;2022-08-01T10:26:07;25.24;61.59
69546;SHT31;56766;52.260;20.746;2022-08-01T10:28:38;25.17;59.75
69546;SHT31;56766;52.260;20.746;2022-08-01T10:31:07;25.05;60.15
69546;SHT31;56766;52.260;20.746;2022-08-01T10:33:34;25.12;60.62
69546;SHT31;56766;52.260;20.746;2022-08-01T10:36:02;25.26;61.38
69546;SHT31;56766;52.260;20.746;2022-08-01T10:38:31;25.47;61.79
69546;SHT31;56766;52.260;20.746;2022-08-01T10:40:59;25.63;59.44
69546;SHT31;56766;52.260;20.746;2022-08-01T10:43:29;25.72;59.15
69546;SHT31;56766;52.260;20.746;2022-08-01T10:45:56;25.69;56.99
69546;SHT31;56766;52.260;20.746;2022-08-01T10:48:34;25.68;58.09
69546;SHT31;56766;52.260;20.746;2022-08-01T10:51:08;25.89;59.14
69546;SHT31;56766;52.260;20.746;2022-08-01T10:53:35;25.96;57.03
69546;SHT31;56766;52.260;20.746;2022-08-01T10:56:04;25.98;57.54
69546;SHT31;56766;52.260;20.746;2022-08-01T10:58:36;26.10;59.11
69546;SHT31;56766;52.260;20.746;2022-08-01T11:01:31;26.13;57.90
69546;SHT31;56766;52.260;20.746;2022-08-01T11:04:05;25.99;57.80
69546;SHT31;56766;52.260;20.746;2022-08-01T11:09:24;25.98;56.86
69546;SHT31;56766;52.260;20.746;2022-08-01T11:17:35;26.05;55.15
69546;SHT31;56766;52.260;20.746;2022-08-01T11:20:11;26.03;56.64
69546;SHT31;56766;52.260;20.746;2022-08-01T11:30:41;26.47;57.32
69546;SHT31;56766;52.260;20.746;2022-08-01T11:41:35;26.59;55.26
69546;SHT31;56766;52.260;20.746;2022-08-01T11:47:03;26.77;56.18
69546;SHT31;56766;52.260;20.746;2022-08-01T11:52:06;27.01;55.10
69546;SHT31;56766;52.260;20.746;2022-08-01T11:57:31;27.00;52.09
69546;SHT31;56766;52.260;20.746;2022-08-01T12:00:13;26.97;53.90
69546;SHT31;56766;52.260;20.746;2022-08-01T12:02:46;26.99;53.37
69546;SHT31;56766;52.260;20.746;2022-08-01T12:05:22;26.94;54.54
69546;SHT31;56766;52.260;20.746;2022-08-01T12:07:50;26.97;55.88
69546;SHT31;56766;52.260;20.746;2022-08-01T12:10:21;27.02;53.01
69546;SHT31;56766;52.260;20.746;2022-08-01T12:13:05;26.93;52.71
69546;SHT31;56766;52.260;20.746;2022-08-01T12:15:35;26.91;51.65
69546;SHT31;56766;52.260;20.746;2022-08-01T12:18:06;26.81;50.85
69546;SHT31;56766;52.260;20.746;2022-08-01T12:20:38;26.82;53.27
69546;SHT31;56766;52.260;20.746;2022-08-01T12:23:11;26.95;52.95
69546;SHT31;56766;52.260;20.746;2022-08-01T12:25:40;26.98;53.24
69546;SHT31;56766;52.260;20.746;2022-08-01T12:28:11;27.10;54.60
69546;SHT31;56766;52.260;20.746;2022-08-01T12:30:41;27.25;54.94
69546;SHT31;56766;52.260;20.746;2022-08-01T12:33:09;27.31;54.34
69546;SHT31;56766;52.260;20.746;2022-08-01T12:35:43;27.34;53.38
69546;SHT31;56766;52.260;20.746;2022-08-01T12:38:15;27.38;53.17
69546;SHT31;56766;52.260;20.746;2022-08-01T12:40:47;27.36;51.14
69546;SHT31;56766;52.260;20.746;2022-08-01T12:43:19;27.30;51.41
69546;SHT31;56766;52.260;20.746;2022-08-01T12:45:50;27.32;52.68
69546;SHT31;56766;52.260;20.746;2022-08-01T12:48:19;27.39;51.91
69546;SHT31;56766;52.260;20.746;2022-08-01T12:50:49;27.39;51.75
69546;SHT31;56766;52.260;20.746;2022-08-01T12:53:19;27.43;51.60
69546;SHT31;56766;52.260;20.746;2022-08-01T12:55:49;27.42;50.15
69546;SHT31;56766;52.260;20.746;2022-08-01T12:58:18;27.38;49.16
69546;SHT31;56766;52.260;20.746;2022-08-01T13:00:49;27.33;49.38
69546;SHT31;56766;52.260;20.746;2022-08-01T13:03:35;27.08;49.27
69546;SHT31;56766;52.260;20.746;2022-08-01T13:06:13;26.89;50.48
69546;SHT31;56766;52.260;20.746;2022-08-01T13:08:41;27.00;50.54
69546;SHT31;56766;52.260;20.746;2022-08-01T13:11:10;26.94;49.89
69546;SHT31;56766;52.260;20.746;2022-08-01T13:13:43;26.78;50.86
69546;SHT31;56766;52.260;20.746;2022-08-01T13:16:21;26.65;52.56
69546;SHT31;56766;52.260;20.746;2022-08-01T13:18:54;26.63;51.12
69546;SHT31;56766;52.260;20.746;2022-08-01T13:21:30;26.63;49.61
69546;SHT31;56766;52.260;20.746;2022-08-01T13:26:47;26.77;51.83
69546;SHT31;56766;52.260;20.746;2022-08-01T13:29:18;26.84;49.72
69546;SHT31;56766;52.260;20.746;2022-08-01T13:31:47;26.79;49.54
69546;SHT31;56766;52.260;20.746;2022-08-01T13:34:14;26.81;50.53
69546;SHT31;56766;52.260;20.746;2022-08-01T13:36:42;26.86;48.82
69546;SHT31;56766;52.260;20.746;2022-08-01T13:39:09;26.95;50.38
69546;SHT31;56766;52.260;20.746;2022-08-01T13:41:55;27.09;51.30
69546;SHT31;56766;52.260;20.746;2022-08-01T13:44:22;27.27;50.92
69546;SHT31;56766;52.260;20.746;2022-08-01T13:46:49;27.42;48.85
69546;SHT31;56766;52.260;20.746;2022-08-01T13:49:15;27.49;49.97
69546;SHT31;56766;52.260;20.746;2022-08-01T13:51:43;27.55;49.03
69546;SHT31;56766;52.260;20.746;2022-08-01T13:54:09;27.58;47.09
69546;SHT31;56766;52.260;20.746;2022-08-01T13:56:36;27.62;47.62
69546;SHT31;56766;52.260;20.746;2022-08-01T13:59:03;27.79;48.14
69546;SHT31;56766;52.260;20.746;2022-08-01T14:01:29;27.88;48.94
69546;SHT31;56766;52.260;20.746;2022-08-01T14:03:56;27.86;49.03
69546;SHT31;56766;52.260;20.746;2022-08-01T14:06:23;27.90;49.79
69546;SHT31;56766;52.260;20.746;2022-08-01T14:08:49;27.98;49.28
69546;SHT31;56766;52.260;20.746;2022-08-01T14:11:16;28.14;48.88
69546;SHT31;56766;52.260;20.746;2022-08-01T14:13:43;28.23;49.62
69546;SHT31;56766;52.260;20.746;2022-08-01T14:16:10;28.28;50.21
69546;SHT31;56766;52.260;20.746;2022-08-01T14:18:37;28.32;49.96
69546;SHT31;56766;52.260;20.746;2022-08-01T14:21:04;28.48;48.35
69546;SHT31;56766;52.260;20.746;2022-08-01T14:23:31;28.66;48.34
69546;SHT31;56766;52.260;20.746;2022-08-01T14:25:57;28.81;46.83
69546;SHT31;56766;52.260;20.746;2022-08-01T14:28:24;28.83;45.81
69546;SHT31;56766;52.260;20.746;2022-08-01T14:30:54;28.80;45.12
69546;SHT31;56766;52.260;20.746;2022-08-01T14:33:21;28.68;45.14
69546;SHT31;56766;52.260;20.746;2022-08-01T14:35:49;28.46;45.69
69546;SHT31;56766;52.260;20.746;2022-08-01T14:38:15;28.16;46.28
69546;SHT31;56766;52.260;20.746;2022-08-01T14:40:42;27.74;46.55
69546;SHT31;56766;52.260;20.746;2022-08-01T14:43:08;27.69;48.63
69546;SHT31;56766;52.260;20.746;2022-08-01T14:45:35;27.79;47.43
69546;SHT31;56766;52.260;20.746;2022-08-01T14:48:02;27.74;46.81
69546;SHT31;56766;52.260;20.746;2022-08-01T14:50:29;27.70;46.95
69546;SHT31;56766;52.260;20.746;2022-08-01T14:52:56;27.64;47.66
69546;SHT31;56766;52.260;20.746;2022-08-01T14:55:24;27.70;48.74
69546;SHT31;56766;52.260;20.746;2022-08-01T14:57:53;27.73;48.06
69546;SHT31;56766;52.260;20.746;2022-08-01T15:00:20;27.77;48.97
69546;SHT31;56766;52.260;20.746;2022-08-01T15:02:48;27.79;47.89
69546;SHT31;56766;52.260;20.746;2022-08-01T15:05:15;27.80;47.37
69546;SHT31;56766;52.260;20.746;2022-08-01T15:07:42;27.75;47.84
69546;SHT31;56766;52.260;20.746;2022-08-01T15:10:08;27.81;48.50
69546;SHT31;56766;52.260;20.746;2022-08-01T15:12:36;27.88;47.87
69546;SHT31;56766;52.260;20.746;2022-08-01T15:15:04;27.96;48.17
69546;SHT31;56766;52.260;20.746;2022-08-01T15:17:32;28.07;48.25
69546;SHT31;56766;52.260;20.746;2022-08-01T15:20:01;28.20;47.89
69546;SHT31;56766;52.260;20.746;2022-08-01T15:22:31;28.29;46.96
69546;SHT31;56766;52.260;20.746;2022-08-01T15:25:00;28.26;45.37
69546;SHT31;56766;52.260;20.746;2022-08-01T15:27:28;28.01;45.56
69546;SHT31;56766;52.260;20.746;2022-08-01T15:29:55;27.85;45.82
69546;SHT31;56766;52.260;20.746;2022-08-01T15:32:23;27.60;45.31
69546;SHT31;56766;52.260;20.746;2022-08-01T15:34:50;27.31;46.67
69546;SHT31;56766;52.260;20.746;2022-08-01T15:37:17;27.09;47.44
69546;SHT31;56766;52.260;20.746;2022-08-01T15:39:44;26.92;47.59
69546;SHT31;56766;52.260;20.746;2022-08-01T15:42:13;26.77;48.44
69546;SHT31;56766;52.260;20.746;2022-08-01T15:44:41;26.63;49.08
69546;SHT31;56766;52.260;20.746;2022-08-01T15:47:09;26.52;49.95
69546;SHT31;56766;52.260;20.746;2022-08-01T15:49:37;26.42;50.40
69546;SHT31;56766;52.260;20.746;2022-08-01T15:52:05;26.30;50.80
69546;SHT31;56766;52.260;20.746;2022-08-01T15:54:33;26.20;51.41
69546;SHT31;56766;52.260;20.746;2022-08-01T15:57:01;26.09;52.27
69546;SHT31;56766;52.260;20.746;2022-08-01T15:59:28;25.99;52.42
69546;SHT31;56766;52.260;20.746;2022-08-01T16:01:55;25.88;52.39
69546;SHT31;56766;52.260;20.746;2022-08-01T16:04:22;25.78;53.50
69546;SHT31;56766;52.260;20.746;2022-08-01T16:06:48;25.69;53.93
69546;SHT31;56766;52.260;20.746;2022-08-01T16:09:15;25.61;53.97
69546;SHT31;56766;52.260;20.746;2022-08-01T16:11:41;25.53;54.43
69546;SHT31;56766;52.260;20.746;2022-08-01T16:14:08;25.45;54.74
69546;SHT31;56766;52.260;20.746;2022-08-01T16:16:35;25.38;55.34
69546;SHT31;56766;52.260;20.746;2022-08-01T16:19:02;25.28;55.16
69546;SHT31;56766;52.260;20.746;2022-08-01T16:21:30;25.19;55.99
69546;SHT31;56766;52.260;20.746;2022-08-01T16:23:57;25.12;56.08